Time;durP1;ratioP1;P1;durP2;ratioP2;P2;SDS_P1;SDS_P2;PMS_P1;PMS_P2;Temp;Humidity;BMP_temperature;BMP_pressure;BME280_temperature;BME280_humidity;BME280_pressure;Samples;Min_cycle;Max_cycle;Signal;HPM_P1;HPM_P2
2021/04/25 00:00:01;;;;;;;4.85;1.17;;;6.20;99.90;;;;;;4673444;30;20058;-65
2021/04/25 00:06:49;;;;;;;3.83;0.90;;;6.10;99.90;;;;;;4698856;30;20064;-65
2021/04/25 00:09:22;;;;;;;7.90;1.75;;;6.20;99.90;;;;;;4665242;30;20066;-65
2021/04/25 00:12:28;;;;;;;6.20;1.10;;;6.10;99.90;;;;;;4659543;30;20459;-65
2021/04/25 00:15:13;;;;;;;3.05;1.10;;;6.10;99.90;;;;;;4673859;30;20062;-65
2021/04/25 00:21:46;;;;;;;3.67;1.27;;;6.30;99.90;;;;;;4702526;30;20076;-65
2021/04/25 00:24:48;;;;;;;5.55;1.30;;;6.10;99.90;;;;;;4673168;30;20072;-65
2021/04/25 00:27:20;;;;;;;4.45;1.17;;;6.10;99.90;;;;;;4665362;30;20499;-65
2021/04/25 00:30:20;;;;;;;5.35;1.60;;;6.10;99.90;;;;;;4662810;30;20062;-65
2021/04/25 00:32:47;;;;;;;4.68;1.30;;;6.10;99.90;;;;;;4662895;30;20112;-65
2021/04/25 00:39:16;;;;;;;5.75;1.25;;;6.10;99.90;;;;;;4702379;30;20075;-65
2021/04/25 00:41:50;;;;;;;5.93;1.27;;;6.10;99.90;;;;;;4671220;30;20054;-65
2021/04/25 00:44:18;;;;;;;5.45;1.27;;;6.10;99.90;;;;;;4685819;30;20533;-65
2021/04/25 00:46:49;;;;;;;5.35;1.40;;;6.10;99.90;;;;;;4656230;30;20050;-65
2021/04/25 00:49:28;;;;;;;9.68;1.80;;;6.10;99.90;;;;;;4684900;30;20050;-65
2021/04/25 00:51:54;;;;;;;6.82;1.83;;;6.10;99.90;;;;;;4656750;30;20062;-65
2021/04/25 00:58:51;;;;;;;4.20;1.45;;;6.00;99.90;;;;;;4702017;30;20060;-65
2021/04/25 01:01:46;;;;;;;7.15;1.42;;;6.00;99.90;;;;;;4684229;30;20203;-65
2021/04/25 01:04:17;;;;;;;7.90;1.97;;;6.00;99.90;;;;;;4672895;30;20115;-65
2021/04/25 01:06:49;;;;;;;6.28;1.75;;;6.00;99.90;;;;;;4667705;30;20308;-65
2021/04/25 01:09:19;;;;;;;4.33;1.50;;;6.00;99.90;;;;;;4677255;30;20136;-65
2021/04/25 01:12:18;;;;;;;6.15;1.73;;;6.10;99.90;;;;;;4668505;30;20157;-65
2021/04/25 01:19:20;;;;;;;7.65;1.77;;;6.10;99.90;;;;;;4701657;30;20060;-65
2021/04/25 01:21:57;;;;;;;4.18;1.15;;;6.00;99.90;;;;;;4670397;30;20054;-65
2021/04/25 01:24:34;;;;;;;11.70;1.70;;;6.00;99.90;;;;;;4670603;30;20065;-65
2021/04/25 01:27:09;;;;;;;7.07;1.40;;;6.00;99.90;;;;;;4683830;30;20068;-65
2021/04/25 01:29:37;;;;;;;4.55;1.40;;;6.00;99.90;;;;;;4660629;30;20093;-65
2021/04/25 01:32:09;;;;;;;12.75;1.88;;;6.00;99.90;;;;;;4672233;30;20077;-65
2021/04/25 01:34:53;;;;;;;5.03;1.17;;;5.90;99.90;;;;;;4686102;30;20422;-65
2021/04/25 01:37:30;;;;;;;7.90;1.73;;;6.00;99.90;;;;;;4673047;30;20068;-65
2021/04/25 01:40:12;;;;;;;6.13;1.42;;;5.90;99.90;;;;;;4681901;30;20232;-65
2021/04/25 01:46:46;;;;;;;5.28;0.98;;;5.90;99.90;;;;;;4701090;30;20120;-65
2021/04/25 01:49:33;;;;;;;3.55;1.10;;;5.90;99.90;;;;;;4660296;30;20058;-65
2021/04/25 01:52:11;;;;;;;2.95;0.90;;;5.90;99.90;;;;;;4677724;30;20057;-65
2021/04/25 01:54:51;;;;;;;7.35;1.25;;;5.90;99.90;;;;;;4679948;30;20491;-65
2021/04/25 01:57:35;;;;;;;6.55;1.52;;;6.00;99.90;;;;;;4658019;30;20514;-65
2021/04/25 02:04:17;;;;;;;6.97;1.38;;;5.90;99.90;;;;;;4700382;30;20064;-65
2021/04/25 02:10:24;;;;;;;3.80;1.00;;;5.90;99.90;;;;;;4691369;30;20159;-65
2021/04/25 02:16:47;;;;;;;2.58;0.90;;;6.00;99.90;;;;;;4700936;30;20108;-65
2021/04/25 02:19:47;;;;;;;7.43;1.30;;;6.00;99.90;;;;;;4658451;30;20054;-65
2021/04/25 02:22:36;;;;;;;3.08;0.95;;;6.00;99.90;;;;;;4672139;30;20556;-65
2021/04/25 02:28:53;;;;;;;7.35;1.60;;;6.10;99.90;;;;;;4700558;30;20505;-65
2021/04/25 02:31:46;;;;;;;10.70;1.83;;;6.10;99.90;;;;;;4666672;30;20065;-65
2021/04/25 02:34:20;;;;;;;6.43;1.05;;;6.00;99.90;;;;;;4668511;30;20050;-65
2021/04/25 02:36:50;;;;;;;3.10;1.00;;;6.00;99.90;;;;;;4671199;30;20414;-65
2021/04/25 02:39:18;;;;;;;3.53;0.90;;;6.00;99.90;;;;;;4663805;30;20072;-65
2021/04/25 02:41:56;;;;;;;6.60;1.17;;;6.00;99.90;;;;;;4655608;30;20046;-65
2021/04/25 02:44:24;;;;;;;3.58;1.10;;;6.00;99.90;;;;;;4682330;30;20068;-65
2021/04/25 02:46:51;;;;;;;4.50;1.00;;;6.10;99.90;;;;;;4681520;30;20050;-65
2021/04/25 02:49:19;;;;;;;7.18;1.30;;;6.00;99.90;;;;;;4677459;30;20450;-65
2021/04/25 02:51:46;;;;;;;4.38;1.10;;;6.00;99.90;;;;;;4675378;30;20054;-65
2021/04/25 02:54:19;;;;;;;4.00;1.08;;;6.00;99.90;;;;;;4696963;30;20053;-65
2021/04/25 02:56:48;;;;;;;7.07;1.17;;;6.00;99.90;;;;;;4680803;30;20140;-65
2021/04/25 02:59:41;;;;;;;5.28;1.15;;;6.00;99.90;;;;;;4682130;30;20085;-65
2021/04/25 03:02:20;;;;;;;6.35;1.17;;;5.90;99.90;;;;;;4670182;30;20056;-65
2021/04/25 03:04:58;;;;;;;3.15;1.13;;;5.90;99.90;;;;;;4654316;30;20111;-65
2021/04/25 03:11:47;;;;;;;3.80;1.20;;;5.90;99.90;;;;;;4695359;30;20060;-65
2021/04/25 03:15:05;;;;;;;5.68;0.90;;;5.90;99.90;;;;;;4683600;30;20069;-65
2021/04/25 03:17:34;;;;;;;5.38;0.90;;;5.90;99.90;;;;;;4673066;30;20042;-65
2021/04/25 03:24:18;;;;;;;4.03;1.13;;;5.90;99.90;;;;;;4699956;30;20408;-65
2021/04/25 03:26:54;;;;;;;5.67;1.03;;;5.80;99.90;;;;;;4698842;30;20103;-65
2021/04/25 03:29:41;;;;;;;3.88;1.00;;;5.80;99.90;;;;;;4684817;30;20371;-65
2021/04/25 03:32:11;;;;;;;3.05;0.88;;;5.80;99.90;;;;;;4684698;30;20168;-65
2021/04/25 03:38:52;;;;;;;5.78;0.90;;;5.80;99.90;;;;;;4696352;30;20081;-65
2021/04/25 03:41:26;;;;;;;5.50;1.10;;;5.90;99.90;;;;;;4668580;30;20049;-72
2021/04/25 03:44:06;;;;;;;4.88;1.25;;;5.90;99.90;;;;;;4700009;30;20133;-65
2021/04/25 03:50:40;;;;;;;3.55;1.10;;;6.00;99.90;;;;;;4699566;30;20419;-65
2021/04/25 03:53:12;;;;;;;5.88;1.40;;;6.00;99.90;;;;;;4695666;30;20073;-65
2021/04/25 03:55:44;;;;;;;8.75;1.27;;;6.00;99.90;;;;;;4681643;30;20491;-66
2021/04/25 03:58:12;;;;;;;5.93;1.15;;;6.00;99.90;;;;;;4670480;30;20046;-66
2021/04/25 04:00:40;;;;;;;7.45;1.92;;;6.10;99.90;;;;;;4676642;30;20123;-66
2021/04/25 04:03:42;;;;;;;6.38;1.02;;;6.00;99.90;;;;;;4684767;30;20061;-65
2021/04/25 04:06:26;;;;;;;6.97;1.08;;;6.00;99.90;;;;;;4699658;30;20069;-66
2021/04/25 04:08:53;;;;;;;2.78;0.80;;;6.00;99.90;;;;;;4687714;30;20152;-65
2021/04/25 04:11:19;;;;;;;5.22;1.25;;;6.10;99.90;;;;;;4697607;30;20068;-65
2021/04/25 04:13:53;;;;;;;6.85;1.23;;;6.00;99.90;;;;;;4699772;30;20152;-66
2021/04/25 04:16:26;;;;;;;3.63;1.08;;;6.20;99.90;;;;;;4698608;30;20104;-65
2021/04/25 04:18:53;;;;;;;6.93;1.52;;;6.10;99.90;;;;;;4698534;30;20100;-66
2021/04/25 04:25:40;;;;;;;8.05;1.20;;;6.00;99.90;;;;;;4700042;30;20108;-66
2021/04/25 04:28:18;;;;;;;7.35;1.33;;;6.00;99.90;;;;;;4702512;30;20124;-65
2021/04/25 04:30:44;;;;;;;3.10;1.00;;;6.00;99.90;;;;;;4697809;30;20418;-66
2021/04/25 04:33:11;;;;;;;6.20;1.30;;;6.10;99.90;;;;;;4699725;30;20053;-66
2021/04/25 04:35:40;;;;;;;5.95;1.23;;;6.10;99.90;;;;;;4700785;30;20482;-65
2021/04/25 04:38:14;;;;;;;7.75;0.88;;;6.00;99.90;;;;;;4702038;30;20061;-66
2021/04/25 04:40:42;;;;;;;4.53;1.13;;;6.10;99.90;;;;;;4702869;30;20061;-65
2021/04/25 04:43:13;;;;;;;4.20;1.05;;;6.10;99.90;;;;;;4702616;30;20069;-66
2021/04/25 04:45:48;;;;;;;6.72;1.00;;;6.20;99.90;;;;;;4683018;30;20422;-65
2021/04/25 04:48:42;;;;;;;6.60;1.10;;;6.20;99.90;;;;;;4702380;30;20056;-66
2021/04/25 04:55:40;;;;;;;13.88;1.60;;;6.20;99.90;;;;;;4702055;30;20072;-66
2021/04/25 04:58:12;;;;;;;5.97;1.20;;;6.10;99.90;;;;;;4697758;30;20049;-65
2021/04/25 05:00:40;;;;;;;4.38;0.95;;;6.10;99.90;;;;;;4698927;30;20061;-65
2021/04/25 05:03:12;;;;;;;7.82;1.30;;;6.10;99.90;;;;;;4684567;30;20061;-65
2021/04/25 05:05:46;;;;;;;4.38;1.08;;;6.10;99.90;;;;;;4685026;30;20137;-65
2021/04/25 05:08:13;;;;;;;4.68;1.33;;;6.10;99.90;;;;;;4669664;30;20050;-66
2021/04/25 05:10:44;;;;;;;11.20;1.27;;;6.20;99.90;;;;;;4702219;30;20483;-66
2021/04/25 05:13:19;;;;;;;7.70;1.80;;;6.30;99.90;;;;;;4685286;30;20437;-66
2021/04/25 05:15:45;;;;;;;5.80;1.60;;;6.30;99.90;;;;;;4686395;30;20454;-66
2021/04/25 05:18:14;;;;;;;5.90;1.45;;;6.20;99.90;;;;;;4701555;30;20503;-66
2021/04/25 05:20:42;;;;;;;6.80;1.15;;;6.20;99.90;;;;;;4685313;30;20050;-66
2021/04/25 05:23:15;;;;;;;6.30;1.77;;;6.30;99.90;;;;;;4701891;30;20050;-66
2021/04/25 05:25:43;;;;;;;6.90;0.80;;;6.20;99.90;;;;;;4684945;30;20065;-66
2021/04/25 05:28:18;;;;;;;4.68;1.13;;;6.20;99.90;;;;;;4701961;30;20410;-66
2021/04/25 05:38:15;;;;;;;8.60;1.25;;;6.20;99.90;;;;;;4700936;30;20052;-66
2021/04/25 05:40:41;;;;;;;7.80;1.40;;;6.20;99.90;;;;;;4697778;30;20052;-66
2021/04/25 05:43:42;;;;;;;1.40;0.65;;;6.20;99.90;;;;;;4700748;30;20061;-66
2021/04/25 05:46:09;;;;;;;4.40;0.75;;;6.30;99.90;;;;;;4687470;30;20104;-65
2021/04/25 05:52:18;;;;;;;11.98;1.15;;;6.30;99.90;;;;;;4701127;30;20185;-66
2021/04/25 05:58:14;;;;;;;4.50;0.98;;;6.30;99.90;;;;;;4701012;30;20124;-66
2021/04/25 06:00:46;;;;;;;6.20;1.17;;;6.30;99.90;;;;;;4700230;30;20049;-66
2021/04/25 06:03:15;;;;;;;6.60;1.30;;;6.40;99.90;;;;;;4684314;30;20140;-66
2021/04/25 06:05:40;;;;;;;4.05;1.00;;;6.30;99.90;;;;;;4664766;30;20129;-66
2021/04/25 06:08:11;;;;;;;3.70;1.20;;;6.40;99.90;;;;;;4699910;30;20085;-66
2021/04/25 06:10:40;;;;;;;4.93;1.23;;;6.50;99.90;;;;;;4697641;30;20502;-66
2021/04/25 06:13:31;;;;;;;4.30;1.02;;;6.40;99.90;;;;;;4684664;30;20065;-65
2021/04/25 06:16:11;;;;;;;7.45;1.00;;;6.50;99.90;;;;;;4700746;30;20057;-66
2021/04/25 06:18:56;;;;;;;11.70;1.33;;;6.40;99.90;;;;;;4700764;30;20495;-65
2021/04/25 06:21:31;;;;;;;3.67;0.98;;;6.50;99.90;;;;;;4679150;30;20049;-65
2021/04/25 06:23:57;;;;;;;5.45;1.63;;;6.50;99.90;;;;;;4698295;30;20064;-66
2021/04/25 06:30:46;;;;;;;5.32;1.25;;;6.60;99.90;;;;;;4700616;30;20456;-66
2021/04/25 06:33:17;;;;;;;4.97;1.48;;;6.50;99.90;;;;;;4695875;30;20045;-65
2021/04/25 06:36:00;;;;;;;3.47;1.02;;;6.50;99.90;;;;;;4700430;30;20045;-64
2021/04/25 06:38:27;;;;;;;5.05;1.15;;;6.50;99.90;;;;;;4669745;30;20108;-66
2021/04/25 06:41:05;;;;;;;9.05;1.13;;;6.60;99.90;;;;;;4700553;30;20046;-66
2021/04/25 06:43:50;;;;;;;8.55;1.40;;;6.70;99.90;;;;;;4693461;30;20128;-66
2021/04/25 06:46:22;;;;;;;7.68;1.35;;;6.70;99.90;;;;;;4700407;30;20056;-66
2021/04/25 06:55:45;;;;;;;5.70;0.93;;;6.80;99.90;;;;;;4698113;30;20503;-66
2021/04/25 06:58:10;;;;;;;10.13;1.83;;;6.80;99.90;;;;;;4685082;30;20056;-65
2021/04/25 07:01:00;;;;;;;5.63;0.90;;;6.70;99.90;;;;;;4700566;30;20053;-66
2021/04/25 07:03:27;;;;;;;4.68;0.95;;;6.80;99.90;;;;;;4669881;30;20123;-66
2021/04/25 07:18:05;;;;;;;3.35;0.90;;;7.00;99.90;;;;;;4700037;30;20092;-66
2021/04/25 07:28:10;;;;;;;6.97;1.45;;;7.10;99.90;;;;;;4700147;30;20045;-65
2021/04/25 07:30:40;;;;;;;7.45;1.02;;;7.20;99.90;;;;;;4695553;30;20053;-65
2021/04/25 07:33:24;;;;;;;5.22;0.93;;;7.30;99.90;;;;;;4700142;30;20054;-66
2021/04/25 07:36:13;;;;;;;;;;;7.30;99.90;;;;;;4696671;30;20403;-65
2021/04/25 07:43:12;;;;;;;3.67;0.82;;;7.40;99.90;;;;;;4699762;30;20169;-66
2021/04/25 07:45:44;;;;;;;3.42;1.02;;;7.40;99.90;;;;;;4699456;30;20483;-66
2021/04/25 07:48:14;;;;;;;3.70;1.00;;;7.50;99.90;;;;;;4700344;30;20050;-66
2021/04/25 07:50:40;;;;;;;11.35;1.40;;;7.50;99.90;;;;;;4679346;30;20050;-66
2021/04/25 07:53:17;;;;;;;9.52;1.70;;;7.40;99.90;;;;;;4668256;30;20058;-65
2021/04/25 07:55:52;;;;;;;8.35;1.38;;;7.50;99.90;;;;;;4696499;30;20054;-66
2021/04/25 07:58:59;;;;;;;6.35;1.08;;;7.50;99.90;;;;;;4696380;30;20049;-65
2021/04/25 08:05:44;;;;;;;4.70;1.05;;;7.50;99.90;;;;;;4702719;30;20044;-65
2021/04/25 08:08:39;;;;;;;6.97;0.90;;;7.60;99.90;;;;;;4686304;30;20042;-65
2021/04/25 08:23:14;;;;;;;3.50;1.10;;;7.60;99.90;;;;;;4702545;30;20086;-65
2021/04/25 08:25:42;;;;;;;8.82;1.10;;;7.60;99.90;;;;;;4687053;30;20075;-66
2021/04/25 08:28:09;;;;;;;9.13;1.08;;;7.70;99.90;;;;;;4702720;30;20499;-66
2021/04/25 08:30:41;;;;;;;2.97;0.80;;;7.70;99.90;;;;;;4682752;30;20483;-66
2021/04/25 08:33:39;;;;;;;5.45;1.17;;;7.70;99.90;;;;;;4685631;30;20104;-66
2021/04/25 08:36:36;;;;;;;8.38;1.02;;;7.80;99.90;;;;;;4672868;30;20073;-66
2021/04/25 08:43:03;;;;;;;6.38;0.95;;;7.70;99.90;;;;;;4702150;30;20121;-65
2021/04/25 08:45:41;;;;;;;4.82;0.93;;;7.70;99.90;;;;;;4686353;30;20061;-66
2021/04/25 08:48:39;;;;;;;3.22;0.80;;;7.60;99.90;;;;;;4702389;30;20052;-66
2021/04/25 08:55:29;;;;;;;5.50;0.93;;;7.70;99.90;;;;;;4702167;30;20099;-66
2021/04/25 08:57:58;;;;;;;7.07;1.00;;;7.80;99.90;;;;;;4686762;30;20511;-66
2021/04/25 09:00:30;;;;;;;4.25;1.00;;;7.80;99.90;;;;;;4702310;30;20115;-66
2021/04/25 09:02:57;;;;;;;8.85;1.10;;;7.90;99.90;;;;;;4702266;30;20080;-66
2021/04/25 09:05:27;;;;;;;6.55;1.20;;;7.90;99.90;;;;;;4691641;30;20053;-67
2021/04/25 09:08:01;;;;;;;4.43;1.00;;;8.00;99.90;;;;;;4702026;30;20053;-66
2021/04/25 09:10:53;;;;;;;3.30;1.00;;;7.90;99.90;;;;;;4702346;30;20058;-66
2021/04/25 09:13:34;;;;;;;7.97;1.20;;;8.00;99.90;;;;;;4700003;30;20084;-65
2021/04/25 09:16:26;;;;;;;6.35;1.20;;;8.10;99.90;;;;;;4669471;30;20050;-66
2021/04/25 09:22:57;;;;;;;2.92;1.00;;;8.10;99.90;;;;;;4701809;30;20493;-66
2021/04/25 09:25:27;;;;;;;7.50;1.02;;;8.30;99.90;;;;;;4681185;30;20060;-66
2021/04/25 09:28:24;;;;;;;9.75;1.80;;;8.30;99.90;;;;;;4701787;30;20049;-66
2021/04/25 09:31:15;;;;;;;5.47;1.10;;;8.40;99.90;;;;;;4697184;30;20049;-65
2021/04/25 09:33:55;;;;;;;2.45;0.98;;;8.50;99.90;;;;;;4701361;30;20052;-66
2021/04/25 09:36:28;;;;;;;4.32;0.80;;;8.50;99.90;;;;;;4701562;30;20130;-66
2021/04/25 09:43:14;;;;;;;7.68;1.50;;;8.50;99.90;;;;;;4701382;30;20514;-66
2021/04/25 09:45:57;;;;;;;1.45;0.75;;;8.60;99.90;;;;;;4695620;30;20046;-66
2021/04/25 09:48:41;;;;;;;3.10;1.00;;;8.70;99.90;;;;;;4686264;30;20074;-66
2021/04/25 09:51:26;;;;;;;2.20;0.65;;;8.80;99.90;;;;;;4687943;30;20053;-66
2021/04/25 09:58:04;;;;;;;6.95;1.02;;;9.00;99.90;;;;;;4700885;30;20083;-66
2021/04/25 10:08:05;;;;;;;2.78;1.02;;;9.10;99.90;;;;;;4701054;30;20072;-65
2021/04/25 10:10:56;;;;;;;2.15;1.00;;;9.30;99.90;;;;;;4702222;30;20054;-65
2021/04/25 10:13:39;;;;;;;5.28;0.88;;;9.40;99.90;;;;;;4685556;30;20061;-65
2021/04/25 10:24:29;;;;;;;8.07;1.23;;;9.20;99.90;;;;;;4696353;30;20049;-64
2021/04/25 10:28:04;;;;;;;8.43;1.20;;;9.20;99.90;;;;;;4669389;30;20167;-65
2021/04/25 10:30:38;;;;;;;3.92;0.90;;;9.10;99.90;;;;;;4675988;30;20082;-64
2021/04/25 10:34:16;;;;;;;5.22;1.60;;;9.00;99.90;;;;;;4697576;30;20050;-64
2021/04/25 10:40:45;;;;;;;3.10;0.70;;;9.30;99.90;;;;;;4681227;30;20105;-65
2021/04/25 10:43:28;;;;;;;7.90;1.42;;;9.40;99.90;;;;;;4681100;30;20165;-65
2021/04/25 10:45:59;;;;;;;7.82;1.40;;;9.50;99.90;;;;;;4660323;30;20053;-67
2021/04/25 10:48:39;;;;;;;6.93;1.45;;;9.50;99.90;;;;;;4664962;30;20060;-67
2021/04/25 10:51:17;;;;;;;5.07;1.00;;;9.40;99.90;;;;;;4667647;30;20085;-67
2021/04/25 11:00:51;;;;;;;11.88;1.48;;;9.40;99.90;;;;;;4683365;30;20061;-66
2021/04/25 11:03:54;;;;;;;4.25;0.70;;;9.30;99.90;;;;;;4656239;30;20062;-65
2021/04/25 11:06:53;;;;;;;10.57;1.30;;;9.40;99.90;;;;;;4663630;30;20420;-65
2021/04/25 11:13:49;;;;;;;6.65;1.10;;;9.30;99.90;;;;;;4699988;30;20109;-65
2021/04/25 11:16:17;;;;;;;5.15;1.13;;;9.40;99.90;;;;;;4670746;30;20057;-66
2021/04/25 11:19:42;;;;;;;5.18;1.17;;;9.40;99.90;;;;;;4667162;30;20092;-66
2021/04/25 11:37:06;;;;;;;7.07;1.10;;;9.80;99.90;;;;;;4647342;30;20496;-64
2021/04/25 11:43:14;;;;;;;4.70;1.48;;;9.70;99.90;;;;;;4642348;30;20046;-64
2021/04/25 11:46:22;;;;;;;4.25;1.15;;;9.70;99.90;;;;;;4637616;30;20555;-65
2021/04/25 11:49:00;;;;;;;4.70;1.17;;;9.70;99.90;;;;;;4633549;31;20142;-66
2021/04/25 11:51:31;;;;;;;5.43;1.38;;;9.70;99.90;;;;;;4620711;30;20059;-65
2021/04/25 11:54:29;;;;;;;6.75;1.48;;;9.70;99.90;;;;;;4648930;30;20493;-65
2021/04/25 11:57:09;;;;;;;4.15;1.15;;;9.80;99.90;;;;;;4665477;30;20528;-66
2021/04/25 12:04:03;;;;;;;11.48;1.60;;;9.90;99.90;;;;;;4703172;30;20044;-65
2021/04/25 12:06:56;;;;;;;5.55;1.23;;;10.00;99.90;;;;;;4688046;30;20053;-66
2021/04/25 12:09:37;;;;;;;8.07;2.00;;;10.00;99.90;;;;;;4687536;30;20140;-66
2021/04/25 12:12:07;;;;;;;6.53;1.45;;;10.00;99.90;;;;;;4699714;30;20057;-65
2021/04/25 12:14:33;;;;;;;9.05;1.40;;;10.00;99.90;;;;;;4702003;30;20414;-65
2021/04/25 12:17:23;;;;;;;3.83;1.10;;;9.90;99.90;;;;;;4673294;30;20507;-65
2021/04/25 12:24:22;;;;;;;11.40;1.52;;;9.80;99.90;;;;;;4702704;30;20125;-66
2021/04/25 12:27:01;;;;;;;8.20;1.83;;;9.80;99.90;;;;;;4688427;30;20144;-66
2021/04/25 12:29:48;;;;;;;10.93;1.63;;;10.00;99.90;;;;;;4703306;30;20049;-66
2021/04/25 12:36:23;;;;;;;7.93;1.35;;;10.30;99.90;;;;;;4702433;30;20398;-66
2021/04/25 12:39:05;;;;;;;5.28;1.13;;;10.50;99.90;;;;;;4687593;30;20171;-66
2021/04/25 12:42:05;;;;;;;9.73;1.52;;;10.60;99.90;;;;;;4700764;30;20073;-66
2021/04/25 12:44:42;;;;;;;4.32;1.20;;;10.50;99.90;;;;;;4702708;30;20065;-65
2021/04/25 12:47:14;;;;;;;5.28;1.48;;;10.30;99.90;;;;;;4675619;30;20041;-66
2021/04/25 12:49:43;;;;;;;5.97;1.33;;;10.20;99.90;;;;;;4674731;30;20054;-65
2021/04/25 12:52:17;;;;;;;7.22;1.40;;;10.50;99.90;;;;;;4689777;30;20050;-66
2021/04/25 12:54:45;;;;;;;2.72;0.85;;;10.50;99.90;;;;;;4678177;30;20162;-65
2021/04/25 13:01:34;;;;;;;6.00;1.20;;;10.40;99.90;;;;;;4702103;30;20088;-65
2021/04/25 13:04:38;;;;;;;6.00;1.35;;;10.30;99.90;;;;;;4686961;30;20058;-66
2021/04/25 13:07:36;;;;;;;3.13;0.80;;;10.00;99.90;;;;;;4648629;30;20128;-65
2021/04/25 13:14:14;;;;;;;6.55;1.15;;;10.40;99.90;;;;;;4701420;30;20399;-66
2021/04/25 13:17:07;;;;;;;4.18;1.23;;;10.40;99.90;;;;;;4670337;30;20157;-65
2021/04/25 13:19:37;;;;;;;5.07;1.38;;;10.20;99.90;;;;;;4700610;30;20057;-66
2021/04/25 13:22:25;;;;;;;3.90;1.10;;;10.20;99.90;;;;;;4700256;30;20045;-66
2021/04/25 13:24:57;;;;;;;5.65;1.10;;;10.10;99.90;;;;;;4696228;30;20417;-65
2021/04/25 13:31:42;;;;;;;8.07;1.25;;;10.20;99.90;;;;;;4701589;30;20056;-66
2021/04/25 13:34:44;;;;;;;2.47;0.90;;;10.40;99.90;;;;;;4696445;30;20056;-65
2021/04/25 13:37:16;;;;;;;5.50;1.17;;;10.50;99.90;;;;;;4701518;30;20049;-65
2021/04/25 13:39:53;;;;;;;6.75;1.52;;;10.50;99.90;;;;;;4686570;30;20050;-66
2021/04/25 13:46:09;;;;;;;6.00;1.42;;;10.40;99.90;;;;;;4701236;30;20045;-65
2021/04/25 13:48:59;;;;;;;7.95;1.23;;;10.40;99.90;;;;;;4681458;30;20045;-66
2021/04/25 13:52:05;;;;;;;4.43;1.13;;;10.60;99.90;;;;;;4680744;30;20077;-66
2021/04/25 13:54:42;;;;;;;8.57;2.10;;;10.70;99.90;;;;;;4686044;30;20061;-66
2021/04/25 13:57:18;;;;;;;5.75;1.30;;;10.90;99.90;;;;;;4673217;30;20049;-66
2021/04/25 13:59:47;;;;;;;8.77;1.70;;;10.80;99.90;;;;;;4701491;30;20513;-66
2021/04/25 14:02:35;;;;;;;7.22;1.38;;;10.70;99.90;;;;;;4685736;30;20049;-66
2021/04/25 14:09:36;;;;;;;6.57;1.83;;;10.40;99.90;;;;;;4700922;30;20041;-66
2021/04/25 14:12:07;;;;;;;4.95;1.10;;;10.20;99.90;;;;;;4655545;30;20120;-65
2021/04/25 14:14:46;;;;;;;4.35;1.40;;;10.20;99.90;;;;;;4672292;30;20096;-66
2021/04/25 14:21:35;;;;;;;5.40;1.60;;;10.50;99.90;;;;;;4698038;30;20419;-65
2021/04/25 14:24:10;;;;;;;6.28;1.10;;;10.80;99.90;;;;;;4686229;30;20131;-66
2021/04/25 14:27:10;;;;;;;10.48;1.90;;;10.80;99.90;;;;;;4684257;30;20046;-66
2021/04/25 14:36:44;;;;;;;4.53;1.00;;;10.40;99.90;;;;;;4684829;30;20128;-65
2021/04/25 14:39:13;;;;;;;6.63;1.38;;;10.30;99.90;;;;;;4668585;30;20108;-65
2021/04/25 14:41:47;;;;;;;5.63;1.13;;;10.40;99.90;;;;;;4701079;30;20104;-65
2021/04/25 14:44:15;;;;;;;8.55;1.20;;;10.50;99.90;;;;;;4701060;30;20088;-66
2021/04/25 14:54:35;;;;;;;8.02;1.00;;;11.10;99.90;;;;;;4700286;30;20072;-66
2021/04/25 14:57:06;;;;;;;4.88;1.52;;;11.20;99.90;;;;;;4700268;30;20072;-66
2021/04/25 15:00:00;;;;;;;9.65;1.50;;;11.20;99.90;;;;;;4684753;30;20056;-66
2021/04/25 15:05:53;;;;;;;10.50;1.40;;;10.60;99.90;;;;;;4699862;30;19925;-66
2021/04/25 15:09:16;;;;;;;8.03;1.40;;;10.30;99.90;;;;;;4659632;30;20069;-65
2021/04/25 15:11:50;;;;;;;12.27;1.63;;;10.30;99.90;;;;;;4683961;30;20133;-65
2021/04/25 15:14:36;;;;;;;8.70;1.17;;;10.40;99.90;;;;;;4659758;30;20410;-65
2021/04/25 15:17:16;;;;;;;8.55;1.50;;;10.60;99.90;;;;;;4681694;30;20499;-65
2021/04/25 15:20:01;;;;;;;10.80;1.70;;;10.80;99.90;;;;;;4698718;30;20083;-65
2021/04/25 15:26:47;;;;;;;3.50;1.25;;;10.60;99.90;;;;;;4699903;30;20049;-65
2021/04/25 15:29:22;;;;;;;9.95;1.55;;;10.60;99.90;;;;;;4682806;30;20159;-64
2021/04/25 15:32:07;;;;;;;5.15;1.30;;;10.50;99.90;;;;;;4696325;30;20049;-65
2021/04/25 15:41:48;;;;;;;7.43;1.33;;;10.40;99.90;;;;;;4684886;30;20095;-65
2021/04/25 15:44:21;;;;;;;9.48;1.42;;;10.40;99.90;;;;;;4681207;30;20053;-65
2021/04/25 15:46:53;;;;;;;8.30;1.73;;;10.50;99.90;;;;;;4678848;30;20070;-65
2021/04/25 15:49:38;;;;;;;5.20;1.38;;;10.50;99.90;;;;;;4684165;30;20062;-65
2021/04/25 15:59:30;;;;;;;7.32;1.63;;;10.40;99.90;;;;;;4667835;30;20100;-66
2021/04/25 16:02:27;;;;;;;9.00;1.58;;;10.40;99.90;;;;;;4682119;30;20058;-66
2021/04/25 16:05:16;;;;;;;10.02;1.33;;;10.40;99.90;;;;;;4683153;30;20142;-67
2021/04/25 16:07:52;;;;;;;3.60;1.00;;;10.50;99.90;;;;;;4670341;30;20564;-65
2021/04/25 16:14:19;;;;;;;9.45;1.45;;;10.60;99.90;;;;;;4699458;30;20044;-66
2021/04/25 16:16:52;;;;;;;6.57;1.33;;;10.60;99.90;;;;;;4679456;30;20089;-65
2021/04/25 16:22:55;;;;;;;10.18;1.48;;;10.40;99.90;;;;;;4687456;30;20061;-67
2021/04/25 16:25:26;;;;;;;4.97;1.52;;;10.20;99.90;;;;;;4682331;30;20092;-66
2021/04/25 16:27:53;;;;;;;5.03;1.10;;;10.10;99.90;;;;;;4687823;30;20518;-66
2021/04/25 16:30:31;;;;;;;9.68;1.40;;;10.10;99.90;;;;;;4685959;30;20050;-71
2021/04/25 16:32:59;;;;;;;6.38;1.27;;;10.00;99.90;;;;;;4683930;30;20064;-67
2021/04/25 16:35:39;;;;;;;7.50;1.30;;;9.70;99.90;;;;;;4661087;30;20068;-66
2021/04/25 16:38:26;;;;;;;12.75;1.90;;;9.60;99.90;;;;;;4667525;30;20305;-69
2021/04/25 16:41:03;;;;;;;3.75;1.17;;;9.60;99.90;;;;;;4656228;30;20419;-66
2021/04/25 16:43:33;;;;;;;10.45;1.40;;;9.60;99.90;;;;;;4699300;30;20057;-66
2021/04/25 16:50:19;;;;;;;8.25;1.75;;;9.70;99.90;;;;;;4702225;30;20076;-66
2021/04/25 16:52:49;;;;;;;9.07;1.23;;;9.70;99.90;;;;;;4698096;30;20041;-66
2021/04/25 16:55:37;;;;;;;7.25;1.70;;;9.70;99.90;;;;;;4674142;30;20064;-66
2021/04/25 16:58:22;;;;;;;5.68;1.63;;;9.80;99.90;;;;;;4684548;30;20054;-66
2021/04/25 17:00:52;;;;;;;5.95;1.17;;;9.80;99.90;;;;;;4686438;30;20415;-66
2021/04/25 17:03:33;;;;;;;6.43;1.88;;;9.70;99.90;;;;;;4676222;30;20062;-66
2021/04/25 17:06:01;;;;;;;4.32;1.30;;;9.90;99.90;;;;;;4674738;30;20065;-66
2021/04/25 17:12:51;;;;;;;6.05;1.40;;;9.80;99.90;;;;;;4701977;30;20048;-66
2021/04/25 17:15:20;;;;;;;8.75;2.05;;;9.60;99.90;;;;;;4670398;30;20601;-68
2021/04/25 17:17:52;;;;;;;5.65;1.75;;;9.50;99.90;;;;;;4686446;30;20065;-66
2021/04/25 17:20:25;;;;;;;4.65;1.25;;;9.30;99.90;;;;;;4673455;30;20123;-66
2021/04/25 17:22:55;;;;;;;5.57;1.10;;;9.30;99.90;;;;;;4683358;30;20128;-68
2021/04/25 17:25:27;;;;;;;7.60;1.30;;;9.20;99.90;;;;;;4701142;30;20057;-66
2021/04/25 17:27:56;;;;;;;8.52;1.63;;;9.20;99.90;;;;;;4701734;30;20046;-66
2021/04/25 17:30:46;;;;;;;9.10;1.48;;;9.00;99.90;;;;;;4690300;30;20056;-66
2021/04/25 17:33:18;;;;;;;6.90;1.13;;;9.00;99.90;;;;;;4668990;30;20488;-66
2021/04/25 17:35:56;;;;;;;7.68;1.80;;;9.00;99.90;;;;;;4686944;30;20053;-66
2021/04/25 17:38:35;;;;;;;5.90;1.30;;;8.80;99.90;;;;;;4686278;30;20092;-66
2021/04/25 17:41:01;;;;;;;3.53;1.25;;;8.90;99.90;;;;;;4669900;30;20082;-66
2021/04/25 17:43:30;;;;;;;7.05;1.77;;;8.80;99.90;;;;;;4672087;30;20088;-66
2021/04/25 17:46:19;;;;;;;3.08;1.20;;;8.80;99.90;;;;;;4669134;30;20148;-65
2021/04/25 17:52:45;;;;;;;8.32;1.40;;;8.50;99.90;;;;;;4701229;30;20107;-66
2021/04/25 17:55:19;;;;;;;6.47;1.33;;;8.50;99.90;;;;;;4677201;30;20101;-66
2021/04/25 17:58:23;;;;;;;6.55;1.58;;;8.40;99.90;;;;;;4695496;30;20472;-66
2021/04/25 18:00:53;;;;;;;5.35;1.38;;;8.30;99.90;;;;;;4685833;30;20487;-66
2021/04/25 18:03:28;;;;;;;4.32;1.05;;;8.30;99.90;;;;;;4683101;30;20050;-66
2021/04/25 18:05:57;;;;;;;7.93;1.60;;;8.40;99.90;;;;;;4682379;30;20565;-66
2021/04/25 18:08:27;;;;;;;7.70;1.55;;;8.30;99.90;;;;;;4675074;30;20105;-66
2021/04/25 18:11:27;;;;;;;11.53;1.83;;;8.20;99.90;;;;;;4686009;30;20057;-67
2021/04/25 18:14:00;;;;;;;7.07;1.38;;;8.30;99.90;;;;;;4662458;30;20077;-67
2021/04/25 18:20:58;;;;;;;10.98;1.85;;;8.10;99.90;;;;;;4700586;30;20103;-67
2021/04/25 18:24:05;;;;;;;9.55;1.20;;;8.00;99.90;;;;;;4683282;30;20057;-66
2021/04/25 18:26:47;;;;;;;13.18;2.33;;;7.90;99.90;;;;;;4669325;30;20558;-67
2021/04/25 18:33:24;;;;;;;4.95;1.40;;;7.80;99.90;;;;;;4700489;30;20124;-66
2021/04/25 18:36:06;;;;;;;5.10;1.00;;;7.60;99.90;;;;;;4698340;30;20049;-68
2021/04/25 18:46:05;;;;;;;11.30;1.83;;;7.40;99.90;;;;;;4700568;30;20084;-68
2021/04/25 18:48:37;;;;;;;7.18;1.58;;;7.40;99.90;;;;;;4700415;30;20054;-68
2021/04/25 18:51:15;;;;;;;13.95;1.80;;;7.30;99.90;;;;;;4700640;30;20050;-70
2021/04/25 18:53:53;;;;;;;8.52;1.60;;;7.20;99.90;;;;;;4671884;30;20134;-69
2021/04/25 18:57:14;;;;;;;4.93;1.20;;;7.20;99.90;;;;;;4679950;30;20097;-70
2021/04/25 18:59:55;;;;;;;6.63;1.45;;;7.10;99.90;;;;;;4682550;30;20061;-68
2021/04/25 19:06:21;;;;;;;4.50;1.40;;;7.00;99.90;;;;;;4700017;30;20044;-67